Bayberry Point, New York
Current Conditions -  °F | °C
As of 9:56 PM on Saturday 24 Jan 2015 (Local Time) from KISP Reporting Station
Few Clouds Few Clouds  
Wind Chill: 28°   Ceiling: Unl
Heat Index: 33°   Visibility: 8mi
Dew Point: 31°   Wind: 6mph
Humidity: 92%   Direction: 280°W
Pressure: 29.39"   Gusts: NA
Location:  40.7426°N, 73.2171°W
Report Text: KISP 250256Z 28005KT 8SM FEW100 FEW260 01/M01 A2939 RMK AO2 SLP951 T00061006 51022
Loading
Personal Weather Stations






























Interactive Weather Map New forecast layout! Learn more

10-Day Weather Forecast

Advertisements
Track Severe Weather on mobile